sensor_id;sensor_type;location;lat;lon;timestamp;P1;durP1;ratioP1;P2;durP2;ratioP2
11817;SDS011;5966;52.402;5.322;2023-04-09T00:00:35;23.30;;;16.30;;
11817;SDS011;5966;52.402;5.322;2023-04-09T00:03:05;21.07;;;16.17;;
11817;SDS011;5966;52.402;5.322;2023-04-09T00:06:34;21.57;;;16.90;;
11817;SDS011;5966;52.402;5.322;2023-04-09T00:09:02;21.97;;;16.60;;
11817;SDS011;5966;52.402;5.322;2023-04-09T00:11:30;23.30;;;17.20;;
11817;SDS011;5966;52.402;5.322;2023-04-09T00:14:03;22.13;;;17.27;;
11817;SDS011;5966;52.402;5.322;2023-04-09T00:16:37;25.50;;;17.90;;
11817;SDS011;5966;52.402;5.322;2023-04-09T00:19:06;23.40;;;17.50;;
11817;SDS011;5966;52.402;5.322;2023-04-09T00:21:45;24.37;;;18.57;;
11817;SDS011;5966;52.402;5.322;2023-04-09T00:24:13;24.17;;;18.90;;
11817;SDS011;5966;52.402;5.322;2023-04-09T00:26:43;24.43;;;18.70;;
11817;SDS011;5966;52.402;5.322;2023-04-09T00:29:16;26.10;;;19.00;;
11817;SDS011;5966;52.402;5.322;2023-04-09T00:31:49;26.60;;;18.70;;
11817;SDS011;5966;52.402;5.322;2023-04-09T00:34:17;29.23;;;18.63;;
11817;SDS011;5966;52.402;5.322;2023-04-09T00:36:47;25.47;;;18.57;;
11817;SDS011;5966;52.402;5.322;2023-04-09T00:40:14;26.63;;;18.70;;
11817;SDS011;5966;52.402;5.322;2023-04-09T00:42:46;27.47;;;19.07;;
11817;SDS011;5966;52.402;5.322;2023-04-09T00:45:16;26.27;;;19.10;;
11817;SDS011;5966;52.402;5.322;2023-04-09T00:47:46;26.97;;;18.13;;
11817;SDS011;5966;52.402;5.322;2023-04-09T00:50:18;28.33;;;19.10;;
11817;SDS011;5966;52.402;5.322;2023-04-09T00:52:49;27.27;;;19.23;;
11817;SDS011;5966;52.402;5.322;2023-04-09T00:55:23;29.20;;;19.63;;
11817;SDS011;5966;52.402;5.322;2023-04-09T00:57:51;28.30;;;19.40;;
11817;SDS011;5966;52.402;5.322;2023-04-09T01:00:21;27.93;;;20.47;;
11817;SDS011;5966;52.402;5.322;2023-04-09T01:02:50;30.07;;;20.23;;
11817;SDS011;5966;52.402;5.322;2023-04-09T01:05:19;26.03;;;19.57;;
11817;SDS011;5966;52.402;5.322;2023-04-09T01:07:53;27.87;;;20.27;;
11817;SDS011;5966;52.402;5.322;2023-04-09T01:10:30;29.87;;;20.33;;
11817;SDS011;5966;52.402;5.322;2023-04-09T01:13:06;31.30;;;20.60;;
11817;SDS011;5966;52.402;5.322;2023-04-09T01:15:41;28.90;;;21.33;;
11817;SDS011;5966;52.402;5.322;2023-04-09T01:18:14;30.57;;;20.27;;
11817;SDS011;5966;52.402;5.322;2023-04-09T01:20:50;26.07;;;19.27;;
11817;SDS011;5966;52.402;5.322;2023-04-09T01:23:28;28.20;;;19.87;;
11817;SDS011;5966;52.402;5.322;2023-04-09T01:26:05;32.33;;;20.77;;
11817;SDS011;5966;52.402;5.322;2023-04-09T01:28:52;28.47;;;19.87;;
11817;SDS011;5966;52.402;5.322;2023-04-09T01:31:33;30.93;;;21.07;;
11817;SDS011;5966;52.402;5.322;2023-04-09T01:34:04;29.90;;;20.03;;
11817;SDS011;5966;52.402;5.322;2023-04-09T01:36:59;27.70;;;19.80;;
11817;SDS011;5966;52.402;5.322;2023-04-09T01:39:36;30.47;;;20.67;;
11817;SDS011;5966;52.402;5.322;2023-04-09T01:43:08;29.43;;;19.93;;
11817;SDS011;5966;52.402;5.322;2023-04-09T01:46:13;29.27;;;20.57;;
11817;SDS011;5966;52.402;5.322;2023-04-09T01:48:44;29.77;;;20.07;;
11817;SDS011;5966;52.402;5.322;2023-04-09T01:52:08;30.57;;;20.40;;
11817;SDS011;5966;52.402;5.322;2023-04-09T01:54:36;28.77;;;19.47;;
11817;SDS011;5966;52.402;5.322;2023-04-09T01:57:13;28.93;;;19.03;;
11817;SDS011;5966;52.402;5.322;2023-04-09T02:00:47;29.40;;;20.53;;
11817;SDS011;5966;52.402;5.322;2023-04-09T02:03:23;32.67;;;19.93;;
11817;SDS011;5966;52.402;5.322;2023-04-09T02:06:03;29.60;;;20.23;;
11817;SDS011;5966;52.402;5.322;2023-04-09T02:08:38;30.73;;;21.10;;
11817;SDS011;5966;52.402;5.322;2023-04-09T02:11:32;31.97;;;19.63;;
11817;SDS011;5966;52.402;5.322;2023-04-09T02:14:49;31.73;;;19.77;;
11817;SDS011;5966;52.402;5.322;2023-04-09T02:17:52;29.60;;;19.53;;
11817;SDS011;5966;52.402;5.322;2023-04-09T02:20:24;30.87;;;20.20;;
11817;SDS011;5966;52.402;5.322;2023-04-09T02:25:44;31.27;;;20.07;;
11817;SDS011;5966;52.402;5.322;2023-04-09T02:31:45;33.13;;;21.27;;
11817;SDS011;5966;52.402;5.322;2023-04-09T02:34:27;29.43;;;19.80;;
11817;SDS011;5966;52.402;5.322;2023-04-09T02:37:29;29.53;;;19.53;;
11817;SDS011;5966;52.402;5.322;2023-04-09T02:43:27;29.23;;;19.17;;
11817;SDS011;5966;52.402;5.322;2023-04-09T02:45:56;32.40;;;21.60;;
11817;SDS011;5966;52.402;5.322;2023-04-09T02:48:52;27.63;;;19.23;;
11817;SDS011;5966;52.402;5.322;2023-04-09T02:52:13;31.00;;;20.17;;
11817;SDS011;5966;52.402;5.322;2023-04-09T03:00:21;35.17;;;21.20;;
11817;SDS011;5966;52.402;5.322;2023-04-09T03:03:43;29.87;;;20.60;;
11817;SDS011;5966;52.402;5.322;2023-04-09T03:06:15;31.67;;;20.30;;
11817;SDS011;5966;52.402;5.322;2023-04-09T03:08:48;31.63;;;21.50;;
11817;SDS011;5966;52.402;5.322;2023-04-09T03:11:29;31.10;;;20.40;;
11817;SDS011;5966;52.402;5.322;2023-04-09T03:14:04;34.23;;;20.50;;
11817;SDS011;5966;52.402;5.322;2023-04-09T03:16:42;30.20;;;20.57;;
11817;SDS011;5966;52.402;5.322;2023-04-09T03:19:37;33.37;;;21.40;;
11817;SDS011;5966;52.402;5.322;2023-04-09T03:22:08;30.50;;;20.20;;
11817;SDS011;5966;52.402;5.322;2023-04-09T03:24:37;33.57;;;21.23;;
11817;SDS011;5966;52.402;5.322;2023-04-09T03:27:19;31.87;;;20.07;;
11817;SDS011;5966;52.402;5.322;2023-04-09T03:29:49;33.53;;;21.23;;
11817;SDS011;5966;52.402;5.322;2023-04-09T03:32:23;32.90;;;21.17;;
11817;SDS011;5966;52.402;5.322;2023-04-09T03:35:20;30.60;;;20.53;;
11817;SDS011;5966;52.402;5.322;2023-04-09T03:37:52;29.77;;;20.70;;
11817;SDS011;5966;52.402;5.322;2023-04-09T03:40:22;30.77;;;20.13;;
11817;SDS011;5966;52.402;5.322;2023-04-09T03:42:50;30.33;;;21.07;;
11817;SDS011;5966;52.402;5.322;2023-04-09T03:48:31;29.57;;;20.10;;
11817;SDS011;5966;52.402;5.322;2023-04-09T03:50:59;30.27;;;20.00;;
11817;SDS011;5966;52.402;5.322;2023-04-09T03:53:54;32.57;;;20.53;;
11817;SDS011;5966;52.402;5.322;2023-04-09T03:56:32;28.17;;;18.93;;
11817;SDS011;5966;52.402;5.322;2023-04-09T03:59:25;28.97;;;18.93;;
11817;SDS011;5966;52.402;5.322;2023-04-09T04:02:40;29.80;;;19.13;;
11817;SDS011;5966;52.402;5.322;2023-04-09T04:12:19;27.70;;;18.60;;
11817;SDS011;5966;52.402;5.322;2023-04-09T04:14:52;29.57;;;20.10;;
11817;SDS011;5966;52.402;5.322;2023-04-09T04:17:25;29.83;;;20.03;;
11817;SDS011;5966;52.402;5.322;2023-04-09T04:20:15;29.40;;;18.77;;
11817;SDS011;5966;52.402;5.322;2023-04-09T04:23:09;26.67;;;18.50;;
11817;SDS011;5966;52.402;5.322;2023-04-09T04:26:10;29.87;;;18.13;;
11817;SDS011;5966;52.402;5.322;2023-04-09T04:28:39;27.93;;;19.03;;
11817;SDS011;5966;52.402;5.322;2023-04-09T04:31:09;28.97;;;19.27;;
11817;SDS011;5966;52.402;5.322;2023-04-09T04:33:39;30.40;;;19.60;;
11817;SDS011;5966;52.402;5.322;2023-04-09T04:36:17;29.50;;;19.27;;
11817;SDS011;5966;52.402;5.322;2023-04-09T04:39:32;25.33;;;18.73;;
11817;SDS011;5966;52.402;5.322;2023-04-09T04:42:11;27.37;;;19.17;;
11817;SDS011;5966;52.402;5.322;2023-04-09T04:44:39;28.23;;;18.63;;
11817;SDS011;5966;52.402;5.322;2023-04-09T04:47:16;27.17;;;19.47;;
11817;SDS011;5966;52.402;5.322;2023-04-09T04:49:46;27.37;;;19.27;;
11817;SDS011;5966;52.402;5.322;2023-04-09T04:52:41;28.10;;;19.17;;
11817;SDS011;5966;52.402;5.322;2023-04-09T04:55:10;28.70;;;19.83;;
11817;SDS011;5966;52.402;5.322;2023-04-09T04:58:00;27.80;;;19.17;;
11817;SDS011;5966;52.402;5.322;2023-04-09T05:00:30;27.87;;;19.30;;
11817;SDS011;5966;52.402;5.322;2023-04-09T05:03:02;28.70;;;19.03;;
11817;SDS011;5966;52.402;5.322;2023-04-09T05:05:32;31.40;;;19.40;;
11817;SDS011;5966;52.402;5.322;2023-04-09T05:08:06;30.53;;;19.40;;
11817;SDS011;5966;52.402;5.322;2023-04-09T05:10:39;26.83;;;19.87;;
11817;SDS011;5966;52.402;5.322;2023-04-09T05:13:11;24.33;;;18.20;;
11817;SDS011;5966;52.402;5.322;2023-04-09T05:15:44;28.30;;;19.47;;
11817;SDS011;5966;52.402;5.322;2023-04-09T05:18:37;26.40;;;18.60;;
11817;SDS011;5966;52.402;5.322;2023-04-09T05:21:10;28.10;;;19.10;;
11817;SDS011;5966;52.402;5.322;2023-04-09T05:23:39;26.57;;;18.63;;
11817;SDS011;5966;52.402;5.322;2023-04-09T05:26:13;26.23;;;18.33;;
11817;SDS011;5966;52.402;5.322;2023-04-09T05:28:57;25.03;;;18.63;;
11817;SDS011;5966;52.402;5.322;2023-04-09T05:31:33;26.27;;;19.03;;
11817;SDS011;5966;52.402;5.322;2023-04-09T05:34:01;27.10;;;19.13;;
11817;SDS011;5966;52.402;5.322;2023-04-09T05:36:29;26.20;;;18.80;;
11817;SDS011;5966;52.402;5.322;2023-04-09T05:38:57;26.57;;;17.93;;
11817;SDS011;5966;52.402;5.322;2023-04-09T05:41:28;25.83;;;17.17;;
11817;SDS011;5966;52.402;5.322;2023-04-09T05:47:33;26.93;;;19.40;;
11817;SDS011;5966;52.402;5.322;2023-04-09T05:50:02;27.07;;;19.17;;
11817;SDS011;5966;52.402;5.322;2023-04-09T05:53:10;26.90;;;18.50;;
11817;SDS011;5966;52.402;5.322;2023-04-09T05:56:12;27.73;;;18.03;;
11817;SDS011;5966;52.402;5.322;2023-04-09T05:58:46;23.20;;;17.00;;
11817;SDS011;5966;52.402;5.322;2023-04-09T06:01:30;25.30;;;16.80;;
11817;SDS011;5966;52.402;5.322;2023-04-09T06:03:58;24.90;;;17.73;;
11817;SDS011;5966;52.402;5.322;2023-04-09T06:06:54;23.37;;;16.63;;
11817;SDS011;5966;52.402;5.322;2023-04-09T06:09:46;23.67;;;16.47;;
11817;SDS011;5966;52.402;5.322;2023-04-09T06:12:30;26.33;;;17.20;;
11817;SDS011;5966;52.402;5.322;2023-04-09T06:15:39;25.17;;;16.80;;
11817;SDS011;5966;52.402;5.322;2023-04-09T06:18:33;23.13;;;16.77;;
11817;SDS011;5966;52.402;5.322;2023-04-09T06:24:10;21.57;;;15.97;;
11817;SDS011;5966;52.402;5.322;2023-04-09T06:27:29;21.80;;;15.67;;
11817;SDS011;5966;52.402;5.322;2023-04-09T06:30:38;19.77;;;14.77;;
11817;SDS011;5966;52.402;5.322;2023-04-09T06:40:18;21.20;;;15.70;;
11817;SDS011;5966;52.402;5.322;2023-04-09T06:43:42;22.23;;;14.73;;
11817;SDS011;5966;52.402;5.322;2023-04-09T06:46:19;21.37;;;15.73;;
11817;SDS011;5966;52.402;5.322;2023-04-09T06:49:00;22.80;;;16.10;;
11817;SDS011;5966;52.402;5.322;2023-04-09T06:51:37;22.50;;;15.83;;
11817;SDS011;5966;52.402;5.322;2023-04-09T06:54:09;20.53;;;15.27;;
11817;SDS011;5966;52.402;5.322;2023-04-09T06:56:36;20.90;;;15.03;;
11817;SDS011;5966;52.402;5.322;2023-04-09T06:59:04;21.23;;;15.00;;
11817;SDS011;5966;52.402;5.322;2023-04-09T07:01:32;20.83;;;15.33;;
11817;SDS011;5966;52.402;5.322;2023-04-09T07:04:03;21.77;;;16.43;;
11817;SDS011;5966;52.402;5.322;2023-04-09T07:06:31;23.77;;;15.93;;
11817;SDS011;5966;52.402;5.322;2023-04-09T07:09:01;23.17;;;16.33;;
11817;SDS011;5966;52.402;5.322;2023-04-09T07:11:46;23.33;;;17.13;;
11817;SDS011;5966;52.402;5.322;2023-04-09T07:14:17;20.93;;;15.40;;
11817;SDS011;5966;52.402;5.322;2023-04-09T07:16:45;22.50;;;16.00;;
11817;SDS011;5966;52.402;5.322;2023-04-09T07:19:13;23.73;;;16.67;;
11817;SDS011;5966;52.402;5.322;2023-04-09T07:21:41;20.43;;;15.47;;
11817;SDS011;5966;52.402;5.322;2023-04-09T07:24:11;22.17;;;16.13;;
11817;SDS011;5966;52.402;5.322;2023-04-09T07:26:41;21.10;;;16.10;;
11817;SDS011;5966;52.402;5.322;2023-04-09T07:29:10;21.57;;;16.43;;
11817;SDS011;5966;52.402;5.322;2023-04-09T07:31:39;19.83;;;15.03;;
11817;SDS011;5966;52.402;5.322;2023-04-09T07:34:09;22.97;;;16.20;;
11817;SDS011;5966;52.402;5.322;2023-04-09T07:36:40;22.63;;;16.67;;
11817;SDS011;5966;52.402;5.322;2023-04-09T07:39:08;23.33;;;15.90;;
11817;SDS011;5966;52.402;5.322;2023-04-09T07:41:36;21.63;;;15.77;;
11817;SDS011;5966;52.402;5.322;2023-04-09T07:44:29;24.37;;;17.00;;
11817;SDS011;5966;52.402;5.322;2023-04-09T07:47:00;25.40;;;17.23;;
11817;SDS011;5966;52.402;5.322;2023-04-09T07:49:35;22.20;;;16.67;;
11817;SDS011;5966;52.402;5.322;2023-04-09T07:52:04;25.37;;;17.87;;
11817;SDS011;5966;52.402;5.322;2023-04-09T07:54:34;25.27;;;18.10;;
11817;SDS011;5966;52.402;5.322;2023-04-09T07:57:18;22.83;;;17.37;;
11817;SDS011;5966;52.402;5.322;2023-04-09T08:00:01;26.07;;;17.30;;
11817;SDS011;5966;52.402;5.322;2023-04-09T08:02:49;22.47;;;15.20;;
11817;SDS011;5966;52.402;5.322;2023-04-09T08:05:18;23.40;;;16.63;;
11817;SDS011;5966;52.402;5.322;2023-04-09T08:07:50;24.20;;;16.73;;
11817;SDS011;5966;52.402;5.322;2023-04-09T08:10:26;21.97;;;17.07;;
11817;SDS011;5966;52.402;5.322;2023-04-09T08:12:54;23.37;;;16.67;;
11817;SDS011;5966;52.402;5.322;2023-04-09T08:15:23;27.50;;;17.50;;
11817;SDS011;5966;52.402;5.322;2023-04-09T08:17:55;24.50;;;17.47;;
11817;SDS011;5966;52.402;5.322;2023-04-09T08:20:25;24.03;;;16.80;;
11817;SDS011;5966;52.402;5.322;2023-04-09T08:22:54;24.53;;;17.27;;
11817;SDS011;5966;52.402;5.322;2023-04-09T08:25:22;23.80;;;17.40;;
11817;SDS011;5966;52.402;5.322;2023-04-09T08:27:51;23.57;;;17.23;;
11817;SDS011;5966;52.402;5.322;2023-04-09T08:30:21;25.63;;;17.80;;
11817;SDS011;5966;52.402;5.322;2023-04-09T08:35:33;23.80;;;17.47;;
11817;SDS011;5966;52.402;5.322;2023-04-09T08:38:03;24.43;;;16.93;;
11817;SDS011;5966;52.402;5.322;2023-04-09T08:40:33;23.83;;;16.73;;
11817;SDS011;5966;52.402;5.322;2023-04-09T08:43:03;24.07;;;16.77;;
11817;SDS011;5966;52.402;5.322;2023-04-09T08:45:32;24.70;;;17.97;;
11817;SDS011;5966;52.402;5.322;2023-04-09T08:48:01;25.27;;;18.23;;
11817;SDS011;5966;52.402;5.322;2023-04-09T08:50:31;24.57;;;18.07;;
11817;SDS011;5966;52.402;5.322;2023-04-09T08:53:01;25.97;;;18.17;;
11817;SDS011;5966;52.402;5.322;2023-04-09T08:55:32;23.10;;;17.50;;
11817;SDS011;5966;52.402;5.322;2023-04-09T08:58:03;24.17;;;17.73;;
11817;SDS011;5966;52.402;5.322;2023-04-09T09:00:32;23.60;;;17.07;;
11817;SDS011;5966;52.402;5.322;2023-04-09T09:03:01;24.13;;;17.70;;
11817;SDS011;5966;52.402;5.322;2023-04-09T09:05:36;22.90;;;17.60;;
11817;SDS011;5966;52.402;5.322;2023-04-09T09:08:05;24.10;;;16.53;;
11817;SDS011;5966;52.402;5.322;2023-04-09T09:10:35;21.50;;;16.37;;
11817;SDS011;5966;52.402;5.322;2023-04-09T09:13:17;21.70;;;16.40;;
11817;SDS011;5966;52.402;5.322;2023-04-09T09:15:48;22.13;;;16.87;;
11817;SDS011;5966;52.402;5.322;2023-04-09T09:18:36;24.40;;;16.53;;
11817;SDS011;5966;52.402;5.322;2023-04-09T09:21:12;23.77;;;17.47;;
11817;SDS011;5966;52.402;5.322;2023-04-09T09:23:46;22.23;;;16.60;;
11817;SDS011;5966;52.402;5.322;2023-04-09T09:26:20;24.60;;;17.23;;
11817;SDS011;5966;52.402;5.322;2023-04-09T09:28:54;22.27;;;17.03;;
11817;SDS011;5966;52.402;5.322;2023-04-09T09:31:24;25.17;;;17.73;;
11817;SDS011;5966;52.402;5.322;2023-04-09T09:33:52;23.03;;;17.17;;
11817;SDS011;5966;52.402;5.322;2023-04-09T09:36:36;24.57;;;17.87;;
11817;SDS011;5966;52.402;5.322;2023-04-09T09:39:04;24.90;;;18.47;;
11817;SDS011;5966;52.402;5.322;2023-04-09T09:41:42;24.27;;;18.00;;
11817;SDS011;5966;52.402;5.322;2023-04-09T09:44:29;35.97;;;19.67;;
11817;SDS011;5966;52.402;5.322;2023-04-09T09:47:04;24.80;;;18.33;;
11817;SDS011;5966;52.402;5.322;2023-04-09T09:49:32;22.37;;;17.43;;
11817;SDS011;5966;52.402;5.322;2023-04-09T09:52:11;27.23;;;19.70;;
11817;SDS011;5966;52.402;5.322;2023-04-09T09:54:42;25.97;;;18.30;;
11817;SDS011;5966;52.402;5.322;2023-04-09T09:57:18;22.07;;;17.80;;
11817;SDS011;5966;52.402;5.322;2023-04-09T09:59:52;22.53;;;17.93;;
11817;SDS011;5966;52.402;5.322;2023-04-09T10:02:27;25.80;;;18.67;;
11817;SDS011;5966;52.402;5.322;2023-04-09T10:05:03;22.97;;;17.47;;
11817;SDS011;5966;52.402;5.322;2023-04-09T10:18:11;22.73;;;18.00;;
11817;SDS011;5966;52.402;5.322;2023-04-09T10:20:42;23.23;;;17.70;;
11817;SDS011;5966;52.402;5.322;2023-04-09T10:23:21;23.23;;;17.17;;
11817;SDS011;5966;52.402;5.322;2023-04-09T10:26:31;21.70;;;17.30;;
11817;SDS011;5966;52.402;5.322;2023-04-09T10:29:12;23.57;;;17.97;;
11817;SDS011;5966;52.402;5.322;2023-04-09T10:32:04;22.53;;;17.23;;
11817;SDS011;5966;52.402;5.322;2023-04-09T10:34:38;21.90;;;16.47;;
11817;SDS011;5966;52.402;5.322;2023-04-09T10:37:13;23.23;;;18.00;;
11817;SDS011;5966;52.402;5.322;2023-04-09T10:39:44;24.03;;;17.43;;
11817;SDS011;5966;52.402;5.322;2023-04-09T10:42:18;21.03;;;15.90;;
11817;SDS011;5966;52.402;5.322;2023-04-09T10:45:05;23.83;;;17.30;;
11817;SDS011;5966;52.402;5.322;2023-04-09T10:47:35;20.37;;;16.60;;
11817;SDS011;5966;52.402;5.322;2023-04-09T10:50:23;19.40;;;15.17;;
11817;SDS011;5966;52.402;5.322;2023-04-09T10:53:21;19.33;;;15.40;;
11817;SDS011;5966;52.402;5.322;2023-04-09T10:55:57;22.30;;;15.10;;
11817;SDS011;5966;52.402;5.322;2023-04-09T10:58:27;19.33;;;14.70;;
11817;SDS011;5966;52.402;5.322;2023-04-09T11:01:02;17.17;;;14.50;;
11817;SDS011;5966;52.402;5.322;2023-04-09T11:03:46;18.70;;;13.83;;
11817;SDS011;5966;52.402;5.322;2023-04-09T11:06:41;18.80;;;14.90;;
11817;SDS011;5966;52.402;5.322;2023-04-09T11:09:18;17.47;;;13.17;;
11817;SDS011;5966;52.402;5.322;2023-04-09T11:11:51;17.57;;;13.87;;
11817;SDS011;5966;52.402;5.322;2023-04-09T11:14:20;18.33;;;13.20;;
11817;SDS011;5966;52.402;5.322;2023-04-09T11:20:02;16.03;;;12.80;;
11817;SDS011;5966;52.402;5.322;2023-04-09T11:22:33;16.63;;;13.50;;
11817;SDS011;5966;52.402;5.322;2023-04-09T11:25:08;16.83;;;13.17;;
11817;SDS011;5966;52.402;5.322;2023-04-09T11:27:42;16.30;;;12.73;;
11817;SDS011;5966;52.402;5.322;2023-04-09T11:30:16;14.23;;;11.83;;
11817;SDS011;5966;52.402;5.322;2023-04-09T11:36:15;13.70;;;11.43;;
11817;SDS011;5966;52.402;5.322;2023-04-09T11:42:45;12.83;;;10.90;;
11817;SDS011;5966;52.402;5.322;2023-04-09T11:45:17;13.40;;;11.00;;
11817;SDS011;5966;52.402;5.322;2023-04-09T11:47:55;12.00;;;10.43;;
11817;SDS011;5966;52.402;5.322;2023-04-09T11:50:52;12.77;;;10.30;;
11817;SDS011;5966;52.402;5.322;2023-04-09T11:53:32;13.37;;;11.33;;
11817;SDS011;5966;52.402;5.322;2023-04-09T11:56:08;13.43;;;10.33;;
11817;SDS011;5966;52.402;5.322;2023-04-09T11:59:22;14.83;;;10.97;;
11817;SDS011;5966;52.402;5.322;2023-04-09T12:05:01;11.93;;;10.00;;
11817;SDS011;5966;52.402;5.322;2023-04-09T12:08:21;11.53;;;10.33;;
11817;SDS011;5966;52.402;5.322;2023-04-09T12:26:34;11.60;;;9.17;;
11817;SDS011;5966;52.402;5.322;2023-04-09T12:29:36;11.93;;;9.07;;
11817;SDS011;5966;52.402;5.322;2023-04-09T12:35:49;10.33;;;8.80;;
11817;SDS011;5966;52.402;5.322;2023-04-09T12:38:17;11.30;;;8.53;;
11817;SDS011;5966;52.402;5.322;2023-04-09T12:40:46;11.70;;;8.43;;
11817;SDS011;5966;52.402;5.322;2023-04-09T12:43:18;10.23;;;7.97;;
11817;SDS011;5966;52.402;5.322;2023-04-09T12:45:54;13.13;;;9.07;;
11817;SDS011;5966;52.402;5.322;2023-04-09T12:48:25;11.63;;;8.63;;
11817;SDS011;5966;52.402;5.322;2023-04-09T12:50:53;10.27;;;8.90;;
11817;SDS011;5966;52.402;5.322;2023-04-09T12:53:23;12.30;;;9.40;;
11817;SDS011;5966;52.402;5.322;2023-04-09T12:55:51;9.27;;;8.27;;
11817;SDS011;5966;52.402;5.322;2023-04-09T12:58:46;11.00;;;8.73;;
11817;SDS011;5966;52.402;5.322;2023-04-09T13:01:14;11.60;;;8.60;;
11817;SDS011;5966;52.402;5.322;2023-04-09T13:03:46;10.87;;;8.73;;
11817;SDS011;5966;52.402;5.322;2023-04-09T13:06:33;10.10;;;8.33;;
11817;SDS011;5966;52.402;5.322;2023-04-09T13:09:14;9.50;;;8.00;;
11817;SDS011;5966;52.402;5.322;2023-04-09T13:11:50;10.13;;;8.70;;
11817;SDS011;5966;52.402;5.322;2023-04-09T13:14:22;9.50;;;7.73;;
11817;SDS011;5966;52.402;5.322;2023-04-09T13:16:56;10.03;;;8.13;;
11817;SDS011;5966;52.402;5.322;2023-04-09T13:19:41;10.50;;;8.50;;
11817;SDS011;5966;52.402;5.322;2023-04-09T13:22:33;8.73;;;6.80;;
11817;SDS011;5966;52.402;5.322;2023-04-09T13:25:04;12.47;;;8.80;;
11817;SDS011;5966;52.402;5.322;2023-04-09T13:27:33;9.90;;;8.57;;
11817;SDS011;5966;52.402;5.322;2023-04-09T13:30:00;9.83;;;8.07;;
11817;SDS011;5966;52.402;5.322;2023-04-09T13:32:30;9.50;;;8.17;;
11817;SDS011;5966;52.402;5.322;2023-04-09T13:35:12;9.80;;;8.27;;
11817;SDS011;5966;52.402;5.322;2023-04-09T13:37:43;9.37;;;7.97;;
11817;SDS011;5966;52.402;5.322;2023-04-09T13:40:39;10.07;;;7.73;;
11817;SDS011;5966;52.402;5.322;2023-04-09T13:43:27;9.63;;;7.87;;
11817;SDS011;5966;52.402;5.322;2023-04-09T13:46:12;12.37;;;9.13;;
11817;SDS011;5966;52.402;5.322;2023-04-09T13:48:57;10.50;;;8.80;;
11817;SDS011;5966;52.402;5.322;2023-04-09T13:51:55;10.43;;;8.40;;
11817;SDS011;5966;52.402;5.322;2023-04-09T13:54:26;11.27;;;8.60;;
11817;SDS011;5966;52.402;5.322;2023-04-09T13:56:55;10.83;;;8.67;;
11817;SDS011;5966;52.402;5.322;2023-04-09T13:59:23;10.47;;;8.73;;
11817;SDS011;5966;52.402;5.322;2023-04-09T14:02:07;10.00;;;8.43;;
11817;SDS011;5966;52.402;5.322;2023-04-09T14:04:35;8.93;;;7.43;;
11817;SDS011;5966;52.402;5.322;2023-04-09T14:07:10;9.83;;;8.17;;
11817;SDS011;5966;52.402;5.322;2023-04-09T14:09:41;9.60;;;8.23;;
11817;SDS011;5966;52.402;5.322;2023-04-09T14:12:09;9.50;;;8.50;;
11817;SDS011;5966;52.402;5.322;2023-04-09T14:14:59;9.27;;;7.80;;
11817;SDS011;5966;52.402;5.322;2023-04-09T14:17:31;10.57;;;7.60;;
11817;SDS011;5966;52.402;5.322;2023-04-09T14:20:00;11.10;;;8.33;;
11817;SDS011;5966;52.402;5.322;2023-04-09T14:22:30;9.00;;;7.80;;
11817;SDS011;5966;52.402;5.322;2023-04-09T14:24:59;9.53;;;8.17;;
11817;SDS011;5966;52.402;5.322;2023-04-09T14:27:27;9.43;;;8.40;;
11817;SDS011;5966;52.402;5.322;2023-04-09T14:29:55;9.83;;;7.57;;
11817;SDS011;5966;52.402;5.322;2023-04-09T14:32:23;10.17;;;8.00;;
11817;SDS011;5966;52.402;5.322;2023-04-09T14:34:51;10.53;;;8.80;;
11817;SDS011;5966;52.402;5.322;2023-04-09T14:37:22;9.77;;;8.03;;
11817;SDS011;5966;52.402;5.322;2023-04-09T14:39:52;11.87;;;7.90;;
11817;SDS011;5966;52.402;5.322;2023-04-09T14:42:26;9.27;;;7.80;;
11817;SDS011;5966;52.402;5.322;2023-04-09T14:45:41;9.00;;;7.87;;
11817;SDS011;5966;52.402;5.322;2023-04-09T14:48:09;11.17;;;7.50;;
11817;SDS011;5966;52.402;5.322;2023-04-09T14:50:56;8.60;;;7.57;;
11817;SDS011;5966;52.402;5.322;2023-04-09T14:54:20;9.17;;;7.67;;
11817;SDS011;5966;52.402;5.322;2023-04-09T14:57:25;9.03;;;7.60;;
11817;SDS011;5966;52.402;5.322;2023-04-09T14:59:55;9.03;;;7.73;;
11817;SDS011;5966;52.402;5.322;2023-04-09T15:02:34;11.77;;;7.97;;
11817;SDS011;5966;52.402;5.322;2023-04-09T15:05:04;9.53;;;7.80;;
11817;SDS011;5966;52.402;5.322;2023-04-09T15:07:32;9.57;;;8.07;;
11817;SDS011;5966;52.402;5.322;2023-04-09T15:10:03;12.87;;;7.80;;
11817;SDS011;5966;52.402;5.322;2023-04-09T15:12:37;10.47;;;8.27;;
11817;SDS011;5966;52.402;5.322;2023-04-09T15:15:05;14.03;;;8.30;;
11817;SDS011;5966;52.402;5.322;2023-04-09T15:17:39;11.03;;;8.03;;
11817;SDS011;5966;52.402;5.322;2023-04-09T15:20:07;11.10;;;8.30;;
11817;SDS011;5966;52.402;5.322;2023-04-09T15:26:18;9.53;;;6.93;;
11817;SDS011;5966;52.402;5.322;2023-04-09T15:28:49;10.37;;;7.30;;
11817;SDS011;5966;52.402;5.322;2023-04-09T15:31:18;9.47;;;7.17;;
11817;SDS011;5966;52.402;5.322;2023-04-09T15:33:46;8.60;;;7.30;;
11817;SDS011;5966;52.402;5.322;2023-04-09T15:36:16;9.03;;;7.40;;
11817;SDS011;5966;52.402;5.322;2023-04-09T15:39:01;8.57;;;6.77;;
11817;SDS011;5966;52.402;5.322;2023-04-09T15:41:33;8.37;;;6.50;;
11817;SDS011;5966;52.402;5.322;2023-04-09T15:44:03;9.13;;;6.80;;
11817;SDS011;5966;52.402;5.322;2023-04-09T15:46:30;7.73;;;6.23;;
11817;SDS011;5966;52.402;5.322;2023-04-09T15:49:00;9.57;;;6.67;;
11817;SDS011;5966;52.402;5.322;2023-04-09T15:51:30;9.23;;;6.40;;
11817;SDS011;5966;52.402;5.322;2023-04-09T15:54:37;8.63;;;6.57;;
11817;SDS011;5966;52.402;5.322;2023-04-09T15:57:10;8.87;;;6.80;;
11817;SDS011;5966;52.402;5.322;2023-04-09T15:59:40;8.13;;;6.77;;
11817;SDS011;5966;52.402;5.322;2023-04-09T16:02:10;7.57;;;6.17;;
11817;SDS011;5966;52.402;5.322;2023-04-09T16:04:41;8.53;;;6.17;;
11817;SDS011;5966;52.402;5.322;2023-04-09T16:07:13;6.60;;;5.87;;
11817;SDS011;5966;52.402;5.322;2023-04-09T16:09:42;8.97;;;7.50;;
11817;SDS011;5966;52.402;5.322;2023-04-09T16:12:13;7.53;;;6.20;;
11817;SDS011;5966;52.402;5.322;2023-04-09T16:14:52;8.70;;;7.37;;
11817;SDS011;5966;52.402;5.322;2023-04-09T16:17:20;11.13;;;7.97;;
11817;SDS011;5966;52.402;5.322;2023-04-09T16:20:09;8.90;;;7.47;;
11817;SDS011;5966;52.402;5.322;2023-04-09T16:22:39;8.90;;;7.23;;
11817;SDS011;5966;52.402;5.322;2023-04-09T16:25:07;8.07;;;7.20;;
11817;SDS011;5966;52.402;5.322;2023-04-09T16:27:36;9.63;;;7.57;;
11817;SDS011;5966;52.402;5.322;2023-04-09T16:30:08;10.53;;;8.67;;
11817;SDS011;5966;52.402;5.322;2023-04-09T16:32:39;9.67;;;7.73;;
11817;SDS011;5966;52.402;5.322;2023-04-09T16:35:18;15.47;;;8.83;;
11817;SDS011;5966;52.402;5.322;2023-04-09T16:37:48;10.17;;;8.13;;
11817;SDS011;5966;52.402;5.322;2023-04-09T16:40:28;10.77;;;8.40;;
11817;SDS011;5966;52.402;5.322;2023-04-09T16:42:56;10.73;;;8.47;;
11817;SDS011;5966;52.402;5.322;2023-04-09T16:45:32;9.17;;;8.13;;
11817;SDS011;5966;52.402;5.322;2023-04-09T16:48:01;10.33;;;7.87;;
11817;SDS011;5966;52.402;5.322;2023-04-09T16:50:37;10.57;;;8.60;;
11817;SDS011;5966;52.402;5.322;2023-04-09T16:53:07;9.93;;;7.90;;
11817;SDS011;5966;52.402;5.322;2023-04-09T16:55:35;9.60;;;8.10;;
11817;SDS011;5966;52.402;5.322;2023-04-09T16:58:34;10.63;;;8.37;;
11817;SDS011;5966;52.402;5.322;2023-04-09T17:01:03;10.80;;;8.53;;
11817;SDS011;5966;52.402;5.322;2023-04-09T17:03:34;10.03;;;8.50;;
11817;SDS011;5966;52.402;5.322;2023-04-09T17:06:03;10.47;;;8.27;;
11817;SDS011;5966;52.402;5.322;2023-04-09T17:08:38;9.90;;;8.27;;
11817;SDS011;5966;52.402;5.322;2023-04-09T17:11:07;9.60;;;8.10;;